DAOO/ORN METAR and TAF weather

Enter ICAO airport designator
Station Type Date Time Source
DAOO METAR 2018/01/24 07:00 UTC NOAA

DAOO 240700Z 21003KT 0200 FG NSC 10/10 Q1027


Station Type Date Time Source
DAOO Decoded METAR 2018/01/24 07:00 UTC NOAA

Oran / Es Senia, Algeria (DAOO) 35-38N 000-36W 90M
Jan 24, 2018 - 02:00 AM EST / 2018.01.24 0700 UTC
Wind: from the SSW (210 degrees) at 3 MPH (3 KT):0
Visibility: less than 1 mile:0
Weather: fog
Temperature: 50 F (10 C)
Dew Point: 50 F (10 C)
Relative Humidity: 100%
Pressure (altimeter): 30.33 in. Hg (1027 hPa)
ob: DAOO 240700Z 21003KT 0200 FG NSC 10/10 Q1027
cycle: 7

Station Type Date Time Source
DAOO TAF 2018/01/24 06:33 UTC NOAA

TAF DAOO 240500Z 2406/2506 VRB02KT 0400 FG NSC
TEMPO 2406/2407 0100 FG
BECMG 2408/2409 1500 BR SCT010
BECMG 2409/2411 6000
BECMG 2412/2415 03010KT CAVOK


Example: see airport list